Portada
METAR-TAF:

METAR-TAF

Aeroports :

Kosrae, Micronèsia

latitud: 05-21N, longitud: 162-57E, altitud: 3 m

Observació

L'informe es va fer fa 1 hora i 3 minuts, a les 17:50 UTC
Vent 5 kt del Sud-Est
Temperatura 28°C
Humitat 79%
Pressió 1007 hPa
Visibilitat: 16.1 km
Cel ennuvolat a una alçada de 1700 ft
Cel ennuvolat a una alçada de 30000 ft

METAR: PTSA 231750Z 13005KT 10SM BKN017 BKN300 28/24 A2973

Hora: 05:53 (18:53 UTC)

Pronòstic

L'informe es va fer fa 1 hora i 23 minuts, a les 17:30 UTC
Pronòstic vàlid del 23 a les 18 UTC al 24 a les 18 UTC
Vent 11 kt del Sud-Oest
Visibilitat: 10 km
Núvols disperses a una alçada de 1700 ft
Núvols disperses a una alçada de 13000 ft
xàfecs en les proximitats

TAF: PTSA 231730Z 2318/2418 23011KT P6SM VCSH SCT017 SCT130

Observacions i pronòstics meteorològics de més de 4000 aeroports (METAR i TAF).

Les estacions disponibles són els punts grocs i vermells al mapa.

Posi el ratolí al punt desitjat per veure el nom de l'estació.

Feu clic per veure les observacions i els pronòstics meteorològics.

Per canviar el mapa: feu clic els botons verds amb una creu de color negre per apropar; al botó verd amb un guió per allunyar la imatge; o en les fletxes verdes per a mapes adjacents.


METAR-TAF: